createdAt,value
2017-12-02T00:00:54.674Z,-0.20
2017-12-02T00:03:21.686Z,-0.30
2017-12-02T00:05:47.936Z,-0.30
2017-12-02T00:08:15.950Z,-0.30
2017-12-02T00:10:42.247Z,-0.30
2017-12-02T00:13:08.489Z,-0.30
2017-12-02T00:15:34.778Z,-0.30
2017-12-02T00:18:01.837Z,-0.30
2017-12-02T00:20:28.149Z,-0.30
2017-12-02T00:22:54.476Z,-0.20
2017-12-02T00:25:21.836Z,-0.30
2017-12-02T00:27:48.145Z,-0.20
2017-12-02T00:30:15.212Z,-0.20
2017-12-02T00:35:13.407Z,-0.10
2017-12-02T00:37:40.457Z,-0.10
2017-12-02T00:40:07.493Z,0.00
2017-12-02T00:42:34.017Z,-0.10
2017-12-02T00:45:00.363Z,0.00
2017-12-02T00:47:27.369Z,0.00
2017-12-02T00:49:53.745Z,0.00
2017-12-02T00:52:20.752Z,0.10
2017-12-02T00:54:47.060Z,0.00
2017-12-02T00:57:13.348Z,0.10
2017-12-02T00:59:40.410Z,0.10
2017-12-02T01:02:07.045Z,0.00
2017-12-02T01:04:33.333Z,0.10
2017-12-02T01:06:59.598Z,0.10
2017-12-02T01:09:25.876Z,0.10
2017-12-02T01:11:52.160Z,0.10
2017-12-02T01:14:18.446Z,0.10
2017-12-02T01:16:44.783Z,0.10
2017-12-02T01:19:11.012Z,0.10
2017-12-02T01:21:37.295Z,0.10
2017-12-02T01:24:03.583Z,0.10
2017-12-02T01:26:29.837Z,0.10
2017-12-02T01:28:56.449Z,0.10
2017-12-02T01:31:23.438Z,0.10
2017-12-02T01:33:49.692Z,0.10
2017-12-02T01:36:15.969Z,0.10
2017-12-02T01:38:42.200Z,0.10
2017-12-02T01:41:08.488Z,0.20
2017-12-02T01:43:34.763Z,0.20
2017-12-02T01:46:00.994Z,0.20
2017-12-02T01:48:27.312Z,0.20
2017-12-02T01:50:53.551Z,0.20
2017-12-02T01:53:19.804Z,0.30
2017-12-02T01:55:46.047Z,0.30
2017-12-02T01:58:12.299Z,0.30
2017-12-02T02:00:38.640Z,0.30
2017-12-02T02:03:05.266Z,0.30
2017-12-02T02:05:31.524Z,0.30
2017-12-02T02:07:57.743Z,0.30
2017-12-02T02:10:24.031Z,0.30
2017-12-02T02:12:51.014Z,0.30
2017-12-02T02:15:17.288Z,0.30
2017-12-02T02:17:43.811Z,0.30
2017-12-02T02:20:10.791Z,0.30
2017-12-02T02:22:37.800Z,0.30
2017-12-02T02:25:04.101Z,0.20
2017-12-02T02:27:30.347Z,0.30
2017-12-02T02:29:56.926Z,0.30
2017-12-02T02:32:23.910Z,0.30
2017-12-02T02:34:50.140Z,0.30
2017-12-02T02:37:16.728Z,0.30
2017-12-02T02:39:43.733Z,0.40
2017-12-02T02:42:09.967Z,0.30
2017-12-02T02:44:36.282Z,0.40
2017-12-02T02:47:02.535Z,0.40
2017-12-02T02:49:28.761Z,0.40
2017-12-02T02:51:55.034Z,0.40
2017-12-02T02:54:21.266Z,0.40
2017-12-02T02:56:47.540Z,0.30
2017-12-02T02:59:13.904Z,0.30
2017-12-02T03:01:40.128Z,0.30
2017-12-02T03:04:07.426Z,0.30
2017-12-02T03:06:33.657Z,0.30
2017-12-02T03:08:59.926Z,0.40
2017-12-02T03:11:26.977Z,0.40
2017-12-02T03:13:53.983Z,0.40
2017-12-02T03:16:20.275Z,0.40
2017-12-02T03:18:46.810Z,0.40
2017-12-02T03:21:13.074Z,0.40
2017-12-02T03:23:39.326Z,0.50
2017-12-02T03:26:06.386Z,0.50
2017-12-02T03:28:32.666Z,0.50
2017-12-02T03:30:58.943Z,0.50
2017-12-02T03:33:25.555Z,0.50
2017-12-02T03:35:51.855Z,0.50
2017-12-02T03:38:18.163Z,0.50
2017-12-02T03:40:44.510Z,0.50
2017-12-02T03:43:11.582Z,0.50
2017-12-02T03:45:37.850Z,0.50
2017-12-02T03:48:04.163Z,0.50
2017-12-02T03:50:31.175Z,0.50
2017-12-02T03:52:57.477Z,0.50
2017-12-02T03:55:23.779Z,0.60
2017-12-02T03:57:50.079Z,0.60
2017-12-02T04:00:16.829Z,0.50
2017-12-02T04:02:43.850Z,0.50
2017-12-02T04:05:10.153Z,0.50
2017-12-02T04:07:36.432Z,0.50
2017-12-02T04:10:03.461Z,0.50
2017-12-02T04:12:29.806Z,0.50
2017-12-02T04:14:56.854Z,0.50
2017-12-02T04:17:23.920Z,0.50
2017-12-02T04:19:50.226Z,0.50
2017-12-02T04:22:17.243Z,0.50
2017-12-02T04:24:43.539Z,0.50
2017-12-02T04:27:09.865Z,0.50
2017-12-02T04:29:36.159Z,0.50
2017-12-02T04:32:02.737Z,0.50
2017-12-02T04:34:29.014Z,0.50
2017-12-02T04:36:56.050Z,0.40
2017-12-02T04:39:22.342Z,0.40
2017-12-02T04:41:48.628Z,0.50
2017-12-02T04:44:14.932Z,0.40
2017-12-02T04:46:41.199Z,0.40
2017-12-02T04:49:07.475Z,0.50
2017-12-02T04:51:33.756Z,0.40
2017-12-02T04:54:00.071Z,0.50
2017-12-02T04:56:26.414Z,0.50
2017-12-02T04:58:52.765Z,0.50
2017-12-02T05:01:19.060Z,0.50
2017-12-02T05:03:45.382Z,0.50
2017-12-02T05:06:12.498Z,0.80
2017-12-02T05:08:38.800Z,0.80
2017-12-02T05:11:05.121Z,1.30
2017-12-02T05:13:31.436Z,1.60
2017-12-02T05:15:57.705Z,1.80
2017-12-02T05:18:24.396Z,2.00
2017-12-02T05:20:50.673Z,2.20
2017-12-02T05:23:16.950Z,2.40
2017-12-02T05:25:43.289Z,2.50
2017-12-02T05:28:09.564Z,2.50
2017-12-02T05:30:35.854Z,2.50
2017-12-02T05:33:02.178Z,2.60
2017-12-02T05:35:28.444Z,2.60
2017-12-02T05:37:54.789Z,2.60
2017-12-02T05:40:21.849Z,3.00
2017-12-02T05:42:48.163Z,2.90
2017-12-02T05:45:15.204Z,3.00
2017-12-02T05:47:42.261Z,3.00
2017-12-02T05:50:09.283Z,2.80
2017-12-02T05:52:35.560Z,2.80
2017-12-02T05:55:01.917Z,2.90
2017-12-02T05:57:28.219Z,3.00
2017-12-02T05:59:54.572Z,3.10
2017-12-02T06:02:20.853Z,3.30
2017-12-02T06:04:47.883Z,3.20
2017-12-02T06:07:14.195Z,3.20
2017-12-02T06:09:40.485Z,2.80
2017-12-02T06:12:06.766Z,2.50
2017-12-02T06:14:33.056Z,2.10
2017-12-02T06:16:59.335Z,1.90
2017-12-02T06:19:26.364Z,1.50
2017-12-02T06:21:52.664Z,1.50
2017-12-02T06:24:18.940Z,1.40
2017-12-02T06:26:46.283Z,1.10
2017-12-02T06:29:13.320Z,1.10
2017-12-02T06:31:40.357Z,1.00
2017-12-02T06:34:06.664Z,1.00
2017-12-02T06:36:32.952Z,0.90
2017-12-02T06:38:59.282Z,1.10
2017-12-02T06:41:25.563Z,1.40
2017-12-02T06:43:51.885Z,1.60
2017-12-02T06:46:18.192Z,1.60
2017-12-02T06:48:44.499Z,1.50
2017-12-02T06:51:10.799Z,1.40
2017-12-02T06:53:37.820Z,1.10
2017-12-02T06:56:04.111Z,1.10
2017-12-02T06:58:30.466Z,1.00
2017-12-02T07:00:57.074Z,0.90
2017-12-02T07:03:23.396Z,0.90
2017-12-02T07:05:49.728Z,0.80
2017-12-02T07:08:16.066Z,0.80
2017-12-02T07:10:42.424Z,0.70
2017-12-02T07:13:08.754Z,0.70
2017-12-02T07:15:35.086Z,0.60
2017-12-02T07:18:01.746Z,0.60
2017-12-02T07:20:28.070Z,0.60
2017-12-02T07:22:54.373Z,0.50
2017-12-02T07:25:20.679Z,0.50
2017-12-02T07:27:47.032Z,0.50
2017-12-02T07:30:13.359Z,0.50
2017-12-02T07:32:39.647Z,0.50
2017-12-02T07:35:05.947Z,0.60
2017-12-02T07:37:32.974Z,0.60
2017-12-02T07:39:59.626Z,0.50
2017-12-02T07:42:25.939Z,0.60
2017-12-02T07:44:52.269Z,0.60
2017-12-02T07:47:18.593Z,0.60
2017-12-02T07:49:44.891Z,0.60
2017-12-02T07:52:12.137Z,0.70
2017-12-02T07:54:38.537Z,0.70
2017-12-02T07:57:05.555Z,0.80
2017-12-02T07:59:32.012Z,0.70
2017-12-02T08:02:00.667Z,0.80
2017-12-02T08:04:26.946Z,0.80
2017-12-02T08:06:53.265Z,0.90
2017-12-02T08:09:19.553Z,0.80
2017-12-02T08:14:18.114Z,0.90
2017-12-02T08:16:44.394Z,0.90
2017-12-02T08:19:10.718Z,0.90
2017-12-02T08:21:37.014Z,0.90
2017-12-02T08:24:03.353Z,0.90
2017-12-02T08:26:30.680Z,0.90
2017-12-02T08:28:56.980Z,0.90
2017-12-02T08:31:23.299Z,0.90
2017-12-02T08:33:50.315Z,0.90
2017-12-02T08:38:48.594Z,0.90
2017-12-02T08:41:14.894Z,0.90
2017-12-02T08:43:41.179Z,0.90
2017-12-02T08:46:07.501Z,0.90
2017-12-02T08:48:34.665Z,1.00
2017-12-02T08:51:01.154Z,1.00
2017-12-02T08:53:27.446Z,1.10
2017-12-02T08:55:53.713Z,1.10
2017-12-02T08:58:20.066Z,1.10
2017-12-02T09:00:46.456Z,1.10
2017-12-02T09:03:13.246Z,1.10
2017-12-02T09:05:39.736Z,1.10
2017-12-02T09:08:06.068Z,1.10
2017-12-02T09:10:32.337Z,1.10
2017-12-02T09:12:59.404Z,1.20
2017-12-02T09:15:25.729Z,1.20
2017-12-02T09:17:52.046Z,1.20
2017-12-02T09:20:19.108Z,1.20
2017-12-02T09:22:45.438Z,1.20
2017-12-02T09:25:11.732Z,1.30
2017-12-02T09:27:38.068Z,1.20
2017-12-02T09:30:04.365Z,1.20
2017-12-02T09:32:30.670Z,1.20
2017-12-02T09:34:57.013Z,1.30
2017-12-02T09:37:23.323Z,1.30
2017-12-02T09:39:49.615Z,1.30
2017-12-02T09:42:16.645Z,1.20
2017-12-02T09:44:42.953Z,1.30
2017-12-02T09:47:09.261Z,1.30
2017-12-02T09:49:35.622Z,1.40
2017-12-02T09:52:02.015Z,1.40
2017-12-02T09:54:28.581Z,1.30
2017-12-02T09:56:55.363Z,1.40
2017-12-02T09:59:22.430Z,1.40
2017-12-02T10:01:48.717Z,1.40
2017-12-02T10:04:15.856Z,1.50
2017-12-02T10:06:42.150Z,1.50
2017-12-02T10:09:08.490Z,1.50
2017-12-02T10:11:34.812Z,1.60
2017-12-02T10:14:01.113Z,1.60
2017-12-02T10:16:27.391Z,1.70
2017-12-02T10:18:53.726Z,1.70
2017-12-02T10:21:20.058Z,1.70
2017-12-02T10:23:47.310Z,1.70
2017-12-02T10:26:13.819Z,1.60
2017-12-02T10:28:40.144Z,1.60
2017-12-02T10:31:06.481Z,1.60
2017-12-02T10:33:32.826Z,1.60
2017-12-02T10:35:59.163Z,1.60
2017-12-02T10:38:26.185Z,1.70
2017-12-02T10:40:53.858Z,1.70
2017-12-02T10:43:20.237Z,1.80
2017-12-02T10:45:46.537Z,1.80
2017-12-02T10:48:13.625Z,1.90
2017-12-02T10:50:39.937Z,1.90
2017-12-02T10:53:06.222Z,1.90
2017-12-02T10:55:32.583Z,1.90
2017-12-02T10:57:58.915Z,1.90
2017-12-02T11:00:25.258Z,1.80
2017-12-02T11:02:51.556Z,1.70
2017-12-02T11:05:18.584Z,1.50
2017-12-02T11:07:44.878Z,1.50
2017-12-02T11:10:11.219Z,1.50
2017-12-02T11:12:37.510Z,1.50
2017-12-02T11:15:05.790Z,1.50
2017-12-02T11:17:32.075Z,1.40
2017-12-02T11:19:58.382Z,1.50
2017-12-02T11:22:24.681Z,1.50
2017-12-02T11:24:50.944Z,1.50
2017-12-02T11:27:17.245Z,1.50
2017-12-02T11:29:43.844Z,1.50
2017-12-02T11:32:10.848Z,1.50
2017-12-02T11:34:37.135Z,1.50
2017-12-02T11:37:03.444Z,1.50
2017-12-02T11:39:30.480Z,1.40
2017-12-02T11:41:56.760Z,1.40
2017-12-02T11:44:23.100Z,1.40
2017-12-02T11:46:49.348Z,1.40
2017-12-02T11:49:15.615Z,1.40
2017-12-02T11:51:41.907Z,1.40
2017-12-02T11:54:08.201Z,1.40
2017-12-02T11:56:34.435Z,1.40
2017-12-02T11:59:00.752Z,1.40
2017-12-02T12:01:26.990Z,1.30
2017-12-02T12:03:53.271Z,1.30
2017-12-02T12:06:20.275Z,1.20
2017-12-02T12:08:46.516Z,1.20
2017-12-02T12:11:12.773Z,1.20
2017-12-02T12:13:39.036Z,1.20
2017-12-02T12:16:05.619Z,1.20
2017-12-02T12:18:32.045Z,1.20
2017-12-02T12:20:59.023Z,1.20
2017-12-02T12:23:25.334Z,1.20
2017-12-02T12:25:51.627Z,1.20
2017-12-02T12:28:17.881Z,1.20
2017-12-02T12:30:44.882Z,1.20
2017-12-02T12:33:11.138Z,1.20
2017-12-02T12:35:37.392Z,1.20
2017-12-02T12:38:04.457Z,1.40
2017-12-02T12:40:30.697Z,1.40
2017-12-02T12:42:57.011Z,1.40
2017-12-02T12:45:23.309Z,1.40
2017-12-02T12:47:50.315Z,1.40
2017-12-02T12:50:16.599Z,1.40
2017-12-02T12:52:42.952Z,1.40
2017-12-02T12:55:09.229Z,1.40
2017-12-02T12:57:35.512Z,1.40
2017-12-02T13:00:01.856Z,1.40
2017-12-02T13:02:28.113Z,1.30
2017-12-02T13:04:54.413Z,1.30
2017-12-02T13:07:20.694Z,1.30
2017-12-02T13:09:47.010Z,1.20
2017-12-02T13:12:13.273Z,1.30
2017-12-02T13:14:39.527Z,1.40
2017-12-02T13:17:06.112Z,1.40
2017-12-02T13:19:32.426Z,1.50
2017-12-02T13:21:59.430Z,1.40
2017-12-02T13:24:25.728Z,1.40
2017-12-02T13:26:53.192Z,1.40
2017-12-02T13:29:19.470Z,1.40
2017-12-02T13:31:45.750Z,1.40
2017-12-02T13:34:11.977Z,1.40
2017-12-02T13:36:38.287Z,1.40
2017-12-02T13:39:04.613Z,1.30
2017-12-02T13:41:32.649Z,1.30
2017-12-02T13:43:59.181Z,1.30
2017-12-02T13:46:25.481Z,1.30
2017-12-02T13:48:51.752Z,1.30
2017-12-02T13:51:18.779Z,1.30
2017-12-02T13:53:45.072Z,1.30
2017-12-02T13:56:11.326Z,1.20
2017-12-02T13:58:38.102Z,1.20
2017-12-02T14:01:04.334Z,1.20
2017-12-02T14:03:30.663Z,1.20
2017-12-02T14:05:56.936Z,1.10
2017-12-02T14:08:23.180Z,1.10
2017-12-02T14:10:51.300Z,1.10
2017-12-02T14:13:17.773Z,1.10
2017-12-02T14:15:44.038Z,1.20
2017-12-02T14:18:11.102Z,1.30
2017-12-02T14:20:37.816Z,1.30
2017-12-02T14:23:04.820Z,1.40
2017-12-02T14:25:31.093Z,1.40
2017-12-02T14:27:58.084Z,1.30
2017-12-02T14:30:24.364Z,1.30
2017-12-02T14:32:51.394Z,1.20
2017-12-02T14:35:17.646Z,1.20
2017-12-02T14:37:45.458Z,1.10
2017-12-02T14:40:11.727Z,1.10
2017-12-02T14:42:38.713Z,1.10
2017-12-02T14:45:05.002Z,1.10
2017-12-02T14:47:31.991Z,1.10
2017-12-02T14:49:58.285Z,1.00
2017-12-02T14:52:24.565Z,1.00
2017-12-02T14:54:50.827Z,1.00
2017-12-02T14:57:17.886Z,0.90
2017-12-02T14:59:44.165Z,0.90
2017-12-02T15:02:10.487Z,0.90
2017-12-02T15:04:36.747Z,0.90
2017-12-02T15:07:03.021Z,0.90
2017-12-02T15:09:29.305Z,0.90
2017-12-02T15:11:56.351Z,0.90
2017-12-02T15:14:23.365Z,0.90
2017-12-02T15:16:49.652Z,0.90
2017-12-02T15:19:15.888Z,0.90
2017-12-02T15:21:42.523Z,0.90
2017-12-02T15:24:08.834Z,0.80
2017-12-02T15:26:35.165Z,0.80
2017-12-02T15:29:01.437Z,0.80
2017-12-02T15:31:27.731Z,0.80
2017-12-02T15:33:53.994Z,0.70
2017-12-02T15:36:20.299Z,0.70
2017-12-02T15:38:46.576Z,0.70
2017-12-02T15:41:12.966Z,0.70
2017-12-02T15:43:39.251Z,0.70
2017-12-02T15:46:07.481Z,0.70
2017-12-02T15:48:33.824Z,0.60
2017-12-02T15:51:05.267Z,0.60
2017-12-02T15:53:32.644Z,0.60
2017-12-02T15:55:59.701Z,0.50
2017-12-02T15:58:26.893Z,0.50
2017-12-02T16:00:53.345Z,0.50
2017-12-02T16:03:19.665Z,0.50
2017-12-02T16:05:46.204Z,0.50
2017-12-02T16:08:12.501Z,0.60
2017-12-02T16:10:38.820Z,0.60
2017-12-02T16:13:05.137Z,0.60
2017-12-02T16:15:32.170Z,0.70
2017-12-02T16:17:59.289Z,0.70
2017-12-02T16:20:26.715Z,0.70
2017-12-02T16:22:53.195Z,0.80
2017-12-02T16:25:19.588Z,0.70
2017-12-02T16:27:45.925Z,0.80
2017-12-02T16:30:12.231Z,0.70
2017-12-02T16:32:38.501Z,0.70
2017-12-02T16:35:04.837Z,0.70
2017-12-02T16:37:31.127Z,0.70
2017-12-02T16:39:57.365Z,0.70
2017-12-02T16:42:23.683Z,0.70
2017-12-02T16:44:50.064Z,0.70
2017-12-02T16:47:17.110Z,0.60
2017-12-02T16:49:44.328Z,0.60
2017-12-02T16:52:10.638Z,0.60
2017-12-02T16:54:37.256Z,0.60
2017-12-02T16:57:03.578Z,0.60
2017-12-02T16:59:29.863Z,0.60
2017-12-02T17:01:56.174Z,0.60
2017-12-02T17:04:22.532Z,0.50
2017-12-02T17:06:49.621Z,0.40
2017-12-02T17:09:15.948Z,0.40
2017-12-02T17:11:48.392Z,0.40
2017-12-02T17:14:15.515Z,0.40
2017-12-02T17:16:41.853Z,0.30
2017-12-02T17:19:08.961Z,0.30
2017-12-02T17:21:35.319Z,0.30
2017-12-02T17:24:01.588Z,0.30
2017-12-02T17:26:27.979Z,0.30
2017-12-02T17:28:54.466Z,0.30
2017-12-02T17:31:20.735Z,0.30
2017-12-02T17:33:47.093Z,0.30
2017-12-02T17:36:14.172Z,0.30
2017-12-02T17:38:40.590Z,0.30
2017-12-02T17:41:06.972Z,0.30
2017-12-02T17:43:33.344Z,0.20
2017-12-02T17:45:59.751Z,0.20
2017-12-02T17:48:26.890Z,0.20
2017-12-02T17:50:53.930Z,0.20
2017-12-02T17:53:20.253Z,0.20
2017-12-02T17:55:46.548Z,0.20
2017-12-02T17:58:12.897Z,0.30
2017-12-02T18:00:39.249Z,0.30
2017-12-02T18:03:05.491Z,0.30
2017-12-02T18:05:32.550Z,0.30
2017-12-02T18:07:59.118Z,0.30
2017-12-02T18:10:25.673Z,0.40
2017-12-02T18:12:52.130Z,0.40
2017-12-02T18:15:19.175Z,0.40
2017-12-02T18:17:46.524Z,0.40
2017-12-02T18:20:13.560Z,0.40
2017-12-02T18:22:39.924Z,0.40
2017-12-02T18:25:06.970Z,0.30
2017-12-02T18:27:33.308Z,0.40
2017-12-02T18:29:59.617Z,0.30
2017-12-02T18:32:26.697Z,0.30
2017-12-02T18:34:52.984Z,0.30
2017-12-02T18:37:20.103Z,0.30
2017-12-02T18:39:47.124Z,0.30
2017-12-02T18:42:13.384Z,0.30
2017-12-02T18:44:40.096Z,0.30
2017-12-02T18:47:07.149Z,0.30
2017-12-02T18:49:33.444Z,0.40
2017-12-02T18:51:59.764Z,0.40
2017-12-02T18:54:26.022Z,0.40
2017-12-02T18:56:52.312Z,0.40
2017-12-02T18:59:19.416Z,0.40
2017-12-02T19:01:45.727Z,0.40
2017-12-02T19:04:12.051Z,0.40
2017-12-02T19:06:38.433Z,0.50
2017-12-02T19:09:05.518Z,0.40
2017-12-02T19:11:31.903Z,0.40
2017-12-02T19:13:58.213Z,0.50
2017-12-02T19:16:24.541Z,0.40
2017-12-02T19:18:51.225Z,0.40
2017-12-02T19:21:17.647Z,0.40
2017-12-02T19:23:43.937Z,0.40
2017-12-02T19:26:10.265Z,0.40
2017-12-02T19:28:36.564Z,0.40
2017-12-02T19:31:03.439Z,0.40
2017-12-02T19:33:29.775Z,0.40
2017-12-02T19:35:56.094Z,0.40
2017-12-02T19:38:22.397Z,0.30
2017-12-02T19:40:48.754Z,0.30
2017-12-02T19:43:15.118Z,0.30
2017-12-02T19:45:41.567Z,0.30
2017-12-02T19:48:07.924Z,0.30
2017-12-02T19:50:34.306Z,0.30
2017-12-02T19:53:01.435Z,0.30
2017-12-02T19:55:28.528Z,0.40
2017-12-02T19:57:54.939Z,0.30
2017-12-02T20:00:21.353Z,0.30
2017-12-02T20:02:48.464Z,0.30
2017-12-02T20:05:15.176Z,0.30
2017-12-02T20:07:41.481Z,0.30
2017-12-02T20:10:07.871Z,0.30
2017-12-02T20:12:34.242Z,0.30
2017-12-02T20:15:00.656Z,0.30
2017-12-02T20:17:27.836Z,0.40
2017-12-02T20:19:54.299Z,0.30
2017-12-02T20:22:20.678Z,0.40
2017-12-02T20:24:47.145Z,0.40
2017-12-02T20:27:13.504Z,0.40
2017-12-02T20:29:40.219Z,0.40
2017-12-02T20:32:06.629Z,0.40
2017-12-02T20:34:32.962Z,0.40
2017-12-02T20:36:59.346Z,0.40
2017-12-02T20:39:25.657Z,0.40
2017-12-02T20:41:52.041Z,0.40
2017-12-02T20:44:18.396Z,0.40
2017-12-02T20:46:44.744Z,0.40
2017-12-02T20:49:11.100Z,0.40
2017-12-02T20:51:37.434Z,0.40
2017-12-02T20:54:04.531Z,0.40
2017-12-02T20:56:30.910Z,0.40
2017-12-02T20:58:58.013Z,0.40
2017-12-02T21:01:24.355Z,0.40
2017-12-02T21:03:50.705Z,0.40
2017-12-02T21:06:17.031Z,0.30
2017-12-02T21:08:43.309Z,0.40
2017-12-02T21:11:09.666Z,0.40
2017-12-02T21:13:36.064Z,0.40
2017-12-02T21:16:02.718Z,0.40
2017-12-02T21:18:29.104Z,0.40
2017-12-02T21:20:55.435Z,0.40
2017-12-02T21:23:22.511Z,0.40
2017-12-02T21:25:48.914Z,0.30
2017-12-02T21:28:15.960Z,0.40
2017-12-02T21:30:43.253Z,0.40
2017-12-02T21:33:09.614Z,0.30
2017-12-02T21:35:35.934Z,0.40
2017-12-02T21:38:02.330Z,0.40
2017-12-02T21:40:28.730Z,0.40
2017-12-02T21:42:55.826Z,0.30
2017-12-02T21:45:22.186Z,0.30
2017-12-02T21:47:48.524Z,0.30
2017-12-02T21:50:14.870Z,0.30
2017-12-02T21:52:41.238Z,0.30
2017-12-02T21:55:07.575Z,0.20
2017-12-02T21:57:33.929Z,0.20
2017-12-02T22:00:00.281Z,0.30
2017-12-02T22:02:27.329Z,0.20
2017-12-02T22:04:54.357Z,0.30
2017-12-02T22:07:20.688Z,0.20
2017-12-02T22:09:47.785Z,0.30
2017-12-02T22:12:14.158Z,0.30
2017-12-02T22:14:40.469Z,0.30
2017-12-02T22:17:06.827Z,0.40
2017-12-02T22:19:33.179Z,0.40
2017-12-02T22:22:00.555Z,0.30
2017-12-02T22:24:26.905Z,0.40
2017-12-02T22:26:53.223Z,0.40
2017-12-02T22:29:19.592Z,0.30
2017-12-02T22:31:46.705Z,0.30
2017-12-02T22:34:12.987Z,0.20
2017-12-02T22:36:40.032Z,0.30
2017-12-02T22:39:07.078Z,0.30
2017-12-02T22:41:34.116Z,0.30
2017-12-02T22:44:01.146Z,0.30
2017-12-02T22:46:27.474Z,0.30
2017-12-02T22:48:53.765Z,0.30
2017-12-02T22:51:20.062Z,0.30
2017-12-02T22:53:46.414Z,0.30
2017-12-02T22:56:13.558Z,0.30
2017-12-02T22:58:39.839Z,0.30
2017-12-02T23:01:06.145Z,0.30
2017-12-02T23:03:32.719Z,0.30
2017-12-02T23:05:59.750Z,0.30
2017-12-02T23:08:26.032Z,0.30
2017-12-02T23:10:52.343Z,0.30
2017-12-02T23:13:18.639Z,0.30
2017-12-02T23:15:45.688Z,0.30
2017-12-02T23:18:12.351Z,0.20
2017-12-02T23:20:38.672Z,0.20
2017-12-02T23:23:05.671Z,0.20
2017-12-02T23:25:32.013Z,0.20
2017-12-02T23:27:58.282Z,0.20
2017-12-02T23:30:24.582Z,0.20
2017-12-02T23:32:51.622Z,0.20
2017-12-02T23:35:17.902Z,0.20
2017-12-02T23:37:44.141Z,0.20
2017-12-02T23:40:10.423Z,0.10
2017-12-02T23:42:37.400Z,0.10
2017-12-02T23:45:03.655Z,0.10
2017-12-02T23:47:29.920Z,0.10
2017-12-02T23:49:56.899Z,0.10
2017-12-02T23:52:23.151Z,0.10
2017-12-02T23:54:49.461Z,0.00
2017-12-02T23:57:15.753Z,0.00
2017-12-02T23:59:42.750Z,0.00
